| time (UTC) | temp C | wind direction | speed KPH | gust KPH | rain 1hr cm | rain 24hr cm | rain mn cm | humidity % | barometer mb |
| 20260507023012 | 21 | 255 | 1.6 | 16.1 | 0.00 | 0.00 | 0.00 | 36 | 1005.8 |
| 20260507021513 | 21 | 260 | 1.6 | 12.9 | 0.00 | 0.00 | 0.00 | 36 | 1005.8 |
| 20260507020013 | 21 | 259 | 6.4 | 11.3 | 0.00 | 0.00 | 0.00 | 35 | 1006.1 |
| 20260507014510 | 22 | 276 | 12.9 | 20.9 | 0.00 | 0.00 | 0.00 | 33 | 1006.2 |
| 20260507013005 | 22 | 30 | 4.8 | 14.5 | 0.00 | 0.00 | 0.00 | 31 | 1006.1 |
| 20260507011601 | 22 | 297 | 4.8 | 25.7 | 0.00 | 0.00 | 0.00 | 31 | 1006.0 |
| 20260507010058 | 21 | 335 | 1.6 | 8.0 | 0.00 | 0.00 | 0.00 | 31 | 1005.9 |
| 20260507004558 | 21 | 356 | 0.0 | 9.7 | 0.00 | 0.00 | 0.00 | 31 | 1005.9 |
| 20260507003106 | 21 | 245 | 1.6 | 12.9 | 0.00 | 0.00 | 0.00 | 32 | 1005.8 |
| 20260507001602 | 21 | 256 | 3.2 | 9.7 | 0.00 | 0.00 | 0.00 | 32 | 1005.7 |
| 20260507000057 | 21 | 259 | 3.2 | 11.3 | 0.00 | 0.00 | 0.00 | 32 | 1005.7 |
| 20260506234605 | 21 | 269 | 8.0 | 17.7 | 0.00 | 0.00 | 0.00 | 33 | 1005.7 |
| 20260506233058 | 22 | 285 | 0.0 | 9.7 | 0.00 | 0.00 | 0.00 | 34 | 1005.5 |
| 20260506231556 | 22 | 235 | 0.0 | 9.7 | 0.00 | 0.00 | 0.00 | 34 | 1005.5 |
| 20260506224559 | 23 | 283 | 1.6 | 12.9 | 0.00 | 0.00 | 0.00 | 34 | 1005.5 |
| 20260506223053 | 23 | 237 | 6.4 | 17.7 | 0.00 | 0.00 | 0.00 | 30 | 1005.6 |
| 20260506221552 | 23 | 333 | 0.0 | 6.4 | 0.00 | 0.00 | 0.00 | 27 | 1005.7 |
| 20260506220054 | 23 | 277 | 3.2 | 9.7 | 0.00 | 0.00 | 0.00 | 27 | 1005.6 |
| 20260506214552 | 23 | 247 | 1.6 | 17.7 | 0.00 | 0.00 | 0.00 | 26 | 1005.6 |
| 20260506213052 | 24 | 201 | 3.2 | 19.3 | 0.00 | 0.00 | 0.00 | 25 | 1005.6 |
| 20260506211551 | 24 | 276 | 3.2 | 19.3 | 0.00 | 0.00 | 0.00 | 26 | 1005.6 |
| 20260506210050 | 24 | 350 | 6.4 | 19.3 | 0.00 | 0.00 | 0.00 | 26 | 1005.6 |
| 20260506204550 | 25 | 264 | 8.0 | 22.5 | 0.00 | 0.00 | 0.00 | 25 | 1005.6 |
| 20260506203049 | 25 | 360 | 6.4 | 16.1 | 0.00 | 0.00 | 0.00 | 27 | 1005.5 |
| 20260506201548 | 26 | 345 | 3.2 | 16.1 | 0.00 | 0.00 | 0.00 | 27 | 1005.4 |
| 20260506200046 | 26 | 32 | 4.8 | 17.7 | 0.00 | 0.00 | 0.00 | 29 | 1005.4 |
| 20260506194547 | 26 | 318 | 3.2 | 14.5 | 0.00 | 0.00 | 0.00 | 32 | 1005.4 |
| 20260506193045 | 25 | 314 | 8.0 | 20.9 | 0.00 | 0.00 | 0.00 | 32 | 1005.5 |
| 20260506191543 | 26 | 302 | 1.6 | 17.7 | 0.00 | 0.00 | 0.00 | 36 | 1005.6 |
| 20260506190043 | 26 | 311 | 1.6 | 12.9 | 0.00 | 0.00 | 0.00 | 35 | 1005.8 |
| 20260506184548 | 26 | 55 | 1.6 | 6.4 | 0.00 | 0.00 | 0.00 | 35 | 1005.8 |
| 20260506183039 | 25 | 174 | 0.0 | 1.6 | 0.00 | 0.00 | 0.00 | 35 | 1005.9 |
| 20260506181535 | 24 | 102 | 1.6 | 12.9 | 0.00 | 0.00 | 0.00 | 37 | 1005.9 |
| 20260506180033 | 23 | 29 | 0.0 | 6.4 | 0.00 | 0.00 | 0.00 | 39 | 1006.1 |
| 20260506174531 | 23 | 356 | 0.0 | 6.4 | 0.00 | 0.00 | 0.00 | 38 | 1006.0 |
| 20260506173032 | 23 | 77 | 0.0 | 8.0 | 0.00 | 0.00 | 0.00 | 39 | 1006.2 |
| 20260506171528 | 22 | 120 | 0.0 | 6.4 | 0.00 | 0.00 | 0.00 | 39 | 1006.3 |
| 20260506170024 | 22 | 24 | 0.0 | 6.4 | 0.00 | 0.00 | 0.00 | 39 | 1006.3 |
| 20260506164521 | 21 | 315 | 0.0 | 6.4 | 0.00 | 0.00 | 0.00 | 41 | 1006.5 |
| 20260506163025 | 21 | 1 | 3.2 | 9.7 | 0.00 | 0.00 | 0.00 | 44 | 1006.5 |
| 20260506161516 | 21 | 342 | 0.0 | 6.4 | 0.00 | 0.00 | 0.00 | 41 | 1006.5 |
| 20260506160015 | 20 | 316 | 0.0 | 11.3 | 0.00 | 0.00 | 0.00 | 41 | 1006.6 |
| 20260506154510 | 20 | 13 | 0.0 | 4.8 | 0.00 | 0.00 | 0.00 | 41 | 1006.7 |
| 20260506153007 | 19 | 12 | 6.4 | 12.9 | 0.00 | 0.00 | 0.00 | 42 | 1006.9 |
| 20260506151503 | 18 | 349 | 0.0 | 8.0 | 0.00 | 0.00 | 0.00 | 44 | 1006.9 |
| 20260506150002 | 18 | 248 | 1.6 | 6.4 | 0.00 | 0.00 | 0.00 | 45 | 1007.0 |
| 20260506144559 | 17 | 273 | 0.0 | 4.8 | 0.00 | 0.00 | 0.00 | 47 | 1006.9 |
| 20260506143059 | 17 | 262 | 0.0 | 6.4 | 0.00 | 0.00 | 0.00 | 47 | 1006.9 |
| 20260506141557 | 16 | 250 | 0.0 | 4.8 | 0.00 | 0.00 | 0.00 | 52 | 1006.9 |
| 20260506140058 | 15 | 91 | 0.0 | 1.6 | 0.00 | 0.00 | 0.00 | 53 | 1006.9 |
| 20260506134553 | -17 | 0.0 | 0.0 | 0.00 | 0.00 | 0.00 | 1006.8 | ||
| 20260506133049 | -17 | 0.0 | 0.0 | 0.00 | 0.00 | 0.00 | 1006.7 | ||
| 20260506131551 | -17 | 0.0 | 0.0 | 0.00 | 0.00 | 0.00 | 1006.6 | ||
| 20260506130057 | -17 | 0.0 | 0.0 | 0.00 | 0.00 | 0.00 | 1006.7 | ||
| 20260506124536 | -17 | 0.0 | 0.0 | 0.00 | 0.00 | 0.00 | 1006.5 | ||
| 20260506123032 | -17 | 0.0 | 0.0 | 0.00 | 0.00 | 0.00 | 1006.6 | ||
| 20260506121529 | 15 | 75 | 0.0 | 3.2 | 0.00 | 0.00 | 0.00 | 52 | 1006.5 |
| 20260506120029 | 14 | 108 | 0.0 | 0.0 | 0.00 | 0.00 | 0.00 | 53 | 1006.6 |
| 20260506114528 | 15 | 112 | 0.0 | 3.2 | 0.00 | 0.00 | 0.00 | 52 | 1006.5 |
| 20260506113022 | 15 | 104 | 0.0 | 3.2 | 0.00 | 0.00 | 0.00 | 52 | 1006.5 |
| 20260506111522 | 15 | 266 | 0.0 | 8.0 | 0.00 | 0.00 | 0.00 | 51 | 1006.4 |
| 20260506110022 | 16 | 111 | 0.0 | 6.4 | 0.00 | 0.00 | 0.00 | 50 | 1006.3 |
| 20260506104517 | 16 | 77 | 0.0 | 3.2 | 0.00 | 0.00 | 0.00 | 48 | 1006.2 |
| 20260506103015 | 16 | 118 | 0.0 | 8.0 | 0.00 | 0.00 | 0.00 | 50 | 1006.0 |
| 20260506101522 | 15 | 273 | 0.0 | 1.6 | 0.00 | 0.00 | 0.00 | 49 | 1005.9 |
| 20260506100011 | 15 | 63 | 0.0 | 3.2 | 0.00 | 0.00 | 0.00 | 49 | 1005.9 |
| 20260506094520 | 16 | 108 | 0.0 | 6.4 | 0.00 | 0.00 | 0.00 | 48 | 1005.8 |
| 20260506093013 | 16 | 127 | 1.6 | 4.8 | 0.00 | 0.00 | 0.00 | 49 | 1005.8 |
| 20260506091507 | 16 | 113 | 0.0 | 4.8 | 0.00 | 0.00 | 0.00 | 49 | 1005.8 |
| 20260506090003 | 16 | 106 | 0.0 | 3.2 | 0.00 | 0.00 | 0.00 | 49 | 1005.9 |
| 20260506084502 | 16 | 66 | 0.0 | 4.8 | 0.00 | 0.00 | 0.00 | 48 | 1005.8 |
| 20260506083101 | 16 | 115 | 0.0 | 3.2 | 0.00 | 0.00 | 0.00 | 47 | 1005.8 |
| 20260506081601 | 17 | 108 | 0.0 | 3.2 | 0.00 | 0.00 | 0.00 | 46 | 1005.8 |
| 20260506073051 | 18 | 242 | 0.0 | 8.0 | 0.00 | 0.00 | 0.00 | 42 | 1005.5 |
| 20260506071547 | 18 | 257 | 0.0 | 9.7 | 0.00 | 0.00 | 0.00 | 42 | 1005.4 |
| 20260506061541 | 18 | 112 | 0.0 | 1.6 | 0.00 | 0.00 | 0.00 | 39 | 1004.9 |
| 20260506044627 | 18 | 263 | 0.0 | 1.6 | 0.00 | 0.00 | 0.00 | 41 | 1004.5 |
| 20260506043038 | 18 | 199 | 0.0 | 4.8 | 0.00 | 0.00 | 0.00 | 42 | 1004.4 |
| 20260506041538 | 18 | 284 | 0.0 | 8.0 | 0.00 | 0.00 | 0.00 | 41 | 1004.4 |
| 20260506040037 | 19 | 264 | 0.0 | 8.0 | 0.00 | 0.00 | 0.00 | 41 | 1004.3 |
| 20260506034602 | 20 | 253 | 0.0 | 6.4 | 0.00 | 0.00 | 0.00 | 40 | 1004.1 |
| 20260506033037 | 20 | 271 | 0.0 | 4.8 | 0.00 | 0.00 | 0.00 | 39 | 1003.9 |
| 20260506031535 | 21 | 325 | 0.0 | 1.6 | 0.00 | 0.00 | 0.00 | 38 | 1003.7 |
| 20260506030035 | 22 | 250 | 0.0 | 8.0 | 0.00 | 0.00 | 0.00 | 37 | 1003.5 |
| 20260506024534 | 23 | 290 | 0.0 | 0.0 | 0.00 | 0.00 | 0.00 | 38 | 1003.3 |